ALL weather

Villanova D'Albenga International Airport
Albenga (SV), Liguria, Italy

Public forecast

Using degrees Celsius for public forecast. Weather courtesy of forecast.io.

METAR (pilot weather report)

Retrieved 2019/08/23 17:50 UTC (2 hours ago):

LIMG 231750Z 03007G20KT CAVOK 28/15 Q1018

TAF (pilot weather forecast)

Closest forecast is Cuneo International Airport, 36.8 nm (68.2 km) NW. Retrieved 2019/08/23 18:21 UTC (1 hour ago):

TAF LIMZ 231700Z 2318/2418 VRB05KT 9999 SCT040 TEMPO 2318/2402 4000 TSRA